sensor_id;sensor_type;location;lat;lon;timestamp;P1;durP1;ratioP1;P2;durP2;ratioP2
74241;SDS011;62599;49.146;10.426;2023-03-19T00:01:06;1.65;;;0.93;;
74241;SDS011;62599;49.146;10.426;2023-03-19T00:03:33;5.13;;;1.33;;
74241;SDS011;62599;49.146;10.426;2023-03-19T00:05:59;3.63;;;1.40;;
74241;SDS011;62599;49.146;10.426;2023-03-19T00:08:25;3.25;;;1.25;;
74241;SDS011;62599;49.146;10.426;2023-03-19T00:10:50;2.85;;;1.40;;
74241;SDS011;62599;49.146;10.426;2023-03-19T00:13:16;5.88;;;1.20;;
74241;SDS011;62599;49.146;10.426;2023-03-19T00:15:42;2.45;;;1.33;;
74241;SDS011;62599;49.146;10.426;2023-03-19T00:18:08;2.35;;;1.00;;
74241;SDS011;62599;49.146;10.426;2023-03-19T00:20:34;2.42;;;1.35;;
74241;SDS011;62599;49.146;10.426;2023-03-19T00:22:59;5.68;;;1.52;;
74241;SDS011;62599;49.146;10.426;2023-03-19T00:25:25;2.80;;;0.90;;
74241;SDS011;62599;49.146;10.426;2023-03-19T00:27:51;1.92;;;0.90;;
74241;SDS011;62599;49.146;10.426;2023-03-19T00:30:19;3.13;;;1.67;;
74241;SDS011;62599;49.146;10.426;2023-03-19T00:32:44;4.07;;;1.83;;
74241;SDS011;62599;49.146;10.426;2023-03-19T00:35:10;1.63;;;0.90;;
74241;SDS011;62599;49.146;10.426;2023-03-19T00:37:36;4.88;;;1.92;;
74241;SDS011;62599;49.146;10.426;2023-03-19T00:40:02;4.60;;;1.33;;
74241;SDS011;62599;49.146;10.426;2023-03-19T00:42:28;2.35;;;1.30;;
74241;SDS011;62599;49.146;10.426;2023-03-19T00:44:55;5.93;;;1.13;;
74241;SDS011;62599;49.146;10.426;2023-03-19T00:47:20;2.65;;;1.38;;
74241;SDS011;62599;49.146;10.426;2023-03-19T00:49:46;4.60;;;1.83;;
74241;SDS011;62599;49.146;10.426;2023-03-19T00:52:12;2.20;;;1.00;;
74241;SDS011;62599;49.146;10.426;2023-03-19T00:54:37;1.67;;;1.10;;
74241;SDS011;62599;49.146;10.426;2023-03-19T00:57:02;1.63;;;1.10;;
74241;SDS011;62599;49.146;10.426;2023-03-19T00:59:28;2.73;;;1.50;;
74241;SDS011;62599;49.146;10.426;2023-03-19T01:01:53;1.40;;;0.90;;
74241;SDS011;62599;49.146;10.426;2023-03-19T01:04:19;2.72;;;1.38;;
74241;SDS011;62599;49.146;10.426;2023-03-19T01:06:44;1.98;;;1.02;;
74241;SDS011;62599;49.146;10.426;2023-03-19T01:09:10;2.78;;;1.52;;
74241;SDS011;62599;49.146;10.426;2023-03-19T01:11:35;8.67;;;1.30;;
74241;SDS011;62599;49.146;10.426;2023-03-19T01:14:01;4.13;;;1.58;;
74241;SDS011;62599;49.146;10.426;2023-03-19T01:16:27;2.40;;;1.73;;
74241;SDS011;62599;49.146;10.426;2023-03-19T01:18:52;4.65;;;2.25;;
74241;SDS011;62599;49.146;10.426;2023-03-19T01:21:21;3.05;;;2.13;;
74241;SDS011;62599;49.146;10.426;2023-03-19T01:23:46;1.33;;;1.00;;
74241;SDS011;62599;49.146;10.426;2023-03-19T01:26:11;3.90;;;2.40;;
74241;SDS011;62599;49.146;10.426;2023-03-19T01:28:37;4.40;;;1.92;;
74241;SDS011;62599;49.146;10.426;2023-03-19T01:31:06;3.03;;;1.42;;
74241;SDS011;62599;49.146;10.426;2023-03-19T01:33:32;2.67;;;1.65;;
74241;SDS011;62599;49.146;10.426;2023-03-19T01:35:58;3.30;;;1.63;;
74241;SDS011;62599;49.146;10.426;2023-03-19T01:38:26;3.05;;;1.90;;
74241;SDS011;62599;49.146;10.426;2023-03-19T01:40:52;7.00;;;2.33;;
74241;SDS011;62599;49.146;10.426;2023-03-19T01:43:22;4.93;;;1.90;;
74241;SDS011;62599;49.146;10.426;2023-03-19T01:45:54;7.53;;;3.05;;
74241;SDS011;62599;49.146;10.426;2023-03-19T01:48:39;3.50;;;2.10;;
74241;SDS011;62599;49.146;10.426;2023-03-19T01:51:16;3.15;;;2.00;;
74241;SDS011;62599;49.146;10.426;2023-03-19T01:53:45;2.22;;;1.48;;
74241;SDS011;62599;49.146;10.426;2023-03-19T01:58:42;2.65;;;1.63;;
74241;SDS011;62599;49.146;10.426;2023-03-19T02:01:10;1.65;;;1.33;;
74241;SDS011;62599;49.146;10.426;2023-03-19T02:03:36;2.38;;;1.50;;
74241;SDS011;62599;49.146;10.426;2023-03-19T02:06:02;4.13;;;1.85;;
74241;SDS011;62599;49.146;10.426;2023-03-19T02:08:28;3.72;;;1.75;;
74241;SDS011;62599;49.146;10.426;2023-03-19T02:10:56;8.05;;;1.40;;
74241;SDS011;62599;49.146;10.426;2023-03-19T02:13:24;5.10;;;1.65;;
74241;SDS011;62599;49.146;10.426;2023-03-19T02:15:51;3.42;;;1.52;;
74241;SDS011;62599;49.146;10.426;2023-03-19T02:18:18;3.72;;;1.52;;
74241;SDS011;62599;49.146;10.426;2023-03-19T02:20:48;2.80;;;1.42;;
74241;SDS011;62599;49.146;10.426;2023-03-19T02:28:35;3.03;;;1.60;;
74241;SDS011;62599;49.146;10.426;2023-03-19T02:31:03;6.72;;;3.08;;
74241;SDS011;62599;49.146;10.426;2023-03-19T02:33:30;3.35;;;1.30;;
74241;SDS011;62599;49.146;10.426;2023-03-19T02:35:55;4.35;;;1.92;;
74241;SDS011;62599;49.146;10.426;2023-03-19T02:38:23;3.25;;;1.52;;
74241;SDS011;62599;49.146;10.426;2023-03-19T02:41:01;4.97;;;2.13;;
74241;SDS011;62599;49.146;10.426;2023-03-19T02:43:34;2.95;;;2.10;;
74241;SDS011;62599;49.146;10.426;2023-03-19T02:46:02;4.68;;;2.33;;
74241;SDS011;62599;49.146;10.426;2023-03-19T02:48:29;5.85;;;2.30;;
74241;SDS011;62599;49.146;10.426;2023-03-19T02:50:55;6.72;;;2.15;;
74241;SDS011;62599;49.146;10.426;2023-03-19T02:53:21;3.93;;;2.23;;
74241;SDS011;62599;49.146;10.426;2023-03-19T02:55:46;5.10;;;2.53;;
74241;SDS011;62599;49.146;10.426;2023-03-19T02:58:12;5.10;;;2.28;;
74241;SDS011;62599;49.146;10.426;2023-03-19T03:00:38;5.88;;;2.47;;
74241;SDS011;62599;49.146;10.426;2023-03-19T03:03:04;4.97;;;2.40;;
74241;SDS011;62599;49.146;10.426;2023-03-19T03:05:31;4.43;;;1.50;;
74241;SDS011;62599;49.146;10.426;2023-03-19T03:07:57;4.57;;;2.20;;
74241;SDS011;62599;49.146;10.426;2023-03-19T03:10:22;4.13;;;2.53;;
74241;SDS011;62599;49.146;10.426;2023-03-19T03:12:48;5.75;;;2.72;;
74241;SDS011;62599;49.146;10.426;2023-03-19T03:15:16;8.32;;;2.30;;
74241;SDS011;62599;49.146;10.426;2023-03-19T03:17:43;8.07;;;2.45;;
74241;SDS011;62599;49.146;10.426;2023-03-19T03:20:10;3.78;;;1.85;;
74241;SDS011;62599;49.146;10.426;2023-03-19T03:22:37;7.43;;;2.25;;
74241;SDS011;62599;49.146;10.426;2023-03-19T03:25:03;4.18;;;2.08;;
74241;SDS011;62599;49.146;10.426;2023-03-19T03:27:30;3.47;;;1.92;;
74241;SDS011;62599;49.146;10.426;2023-03-19T03:29:55;5.03;;;1.33;;
74241;SDS011;62599;49.146;10.426;2023-03-19T03:32:21;1.73;;;1.35;;
74241;SDS011;62599;49.146;10.426;2023-03-19T03:34:46;1.90;;;1.17;;
74241;SDS011;62599;49.146;10.426;2023-03-19T03:37:12;1.90;;;0.85;;
74241;SDS011;62599;49.146;10.426;2023-03-19T03:39:38;1.30;;;0.93;;
74241;SDS011;62599;49.146;10.426;2023-03-19T03:42:03;1.57;;;0.80;;
74241;SDS011;62599;49.146;10.426;2023-03-19T03:44:29;2.67;;;0.77;;
74241;SDS011;62599;49.146;10.426;2023-03-19T03:46:55;1.77;;;0.98;;
74241;SDS011;62599;49.146;10.426;2023-03-19T03:49:21;2.80;;;1.35;;
74241;SDS011;62599;49.146;10.426;2023-03-19T03:51:46;1.30;;;0.77;;
74241;SDS011;62599;49.146;10.426;2023-03-19T03:54:12;2.85;;;1.15;;
74241;SDS011;62599;49.146;10.426;2023-03-19T03:56:37;2.20;;;0.97;;
74241;SDS011;62599;49.146;10.426;2023-03-19T03:59:02;2.70;;;0.80;;
74241;SDS011;62599;49.146;10.426;2023-03-19T04:01:28;5.47;;;1.33;;
74241;SDS011;62599;49.146;10.426;2023-03-19T04:03:54;3.08;;;1.08;;
74241;SDS011;62599;49.146;10.426;2023-03-19T04:06:20;2.87;;;1.20;;
74241;SDS011;62599;49.146;10.426;2023-03-19T04:08:47;3.83;;;1.65;;
74241;SDS011;62599;49.146;10.426;2023-03-19T04:11:13;2.57;;;1.00;;
74241;SDS011;62599;49.146;10.426;2023-03-19T04:13:39;3.25;;;1.45;;
74241;SDS011;62599;49.146;10.426;2023-03-19T04:16:05;7.65;;;1.58;;
74241;SDS011;62599;49.146;10.426;2023-03-19T04:18:32;4.60;;;1.20;;
74241;SDS011;62599;49.146;10.426;2023-03-19T04:20:57;1.75;;;1.13;;
74241;SDS011;62599;49.146;10.426;2023-03-19T04:23:23;2.22;;;0.93;;
74241;SDS011;62599;49.146;10.426;2023-03-19T04:25:49;1.88;;;1.00;;
74241;SDS011;62599;49.146;10.426;2023-03-19T04:28:15;1.58;;;0.90;;
74241;SDS011;62599;49.146;10.426;2023-03-19T04:30:40;2.22;;;1.02;;
74241;SDS011;62599;49.146;10.426;2023-03-19T04:33:07;2.13;;;1.17;;
74241;SDS011;62599;49.146;10.426;2023-03-19T04:35:33;2.88;;;1.23;;
74241;SDS011;62599;49.146;10.426;2023-03-19T04:37:58;2.38;;;1.02;;
74241;SDS011;62599;49.146;10.426;2023-03-19T04:40:24;4.55;;;1.42;;
74241;SDS011;62599;49.146;10.426;2023-03-19T04:42:49;2.22;;;1.23;;
74241;SDS011;62599;49.146;10.426;2023-03-19T04:45:15;2.97;;;1.30;;
74241;SDS011;62599;49.146;10.426;2023-03-19T04:47:43;3.10;;;1.42;;
74241;SDS011;62599;49.146;10.426;2023-03-19T04:50:09;9.35;;;1.73;;
74241;SDS011;62599;49.146;10.426;2023-03-19T04:52:35;6.60;;;1.73;;
74241;SDS011;62599;49.146;10.426;2023-03-19T04:55:05;1.77;;;0.90;;
74241;SDS011;62599;49.146;10.426;2023-03-19T04:57:32;2.17;;;1.15;;
74241;SDS011;62599;49.146;10.426;2023-03-19T04:59:57;4.32;;;1.38;;
74241;SDS011;62599;49.146;10.426;2023-03-19T05:02:23;3.90;;;1.33;;
74241;SDS011;62599;49.146;10.426;2023-03-19T05:04:48;3.17;;;1.65;;
74241;SDS011;62599;49.146;10.426;2023-03-19T05:07:14;3.78;;;1.15;;
74241;SDS011;62599;49.146;10.426;2023-03-19T05:09:41;2.72;;;1.48;;
74241;SDS011;62599;49.146;10.426;2023-03-19T05:12:07;1.65;;;0.82;;
74241;SDS011;62599;49.146;10.426;2023-03-19T05:14:34;2.42;;;1.17;;
74241;SDS011;62599;49.146;10.426;2023-03-19T05:16:59;2.92;;;1.35;;
74241;SDS011;62599;49.146;10.426;2023-03-19T05:19:24;1.33;;;1.03;;
74241;SDS011;62599;49.146;10.426;2023-03-19T05:21:50;4.68;;;0.93;;
74241;SDS011;62599;49.146;10.426;2023-03-19T05:24:15;3.25;;;1.13;;
74241;SDS011;62599;49.146;10.426;2023-03-19T05:26:41;1.73;;;1.15;;
74241;SDS011;62599;49.146;10.426;2023-03-19T05:29:06;1.70;;;1.02;;
74241;SDS011;62599;49.146;10.426;2023-03-19T05:31:34;3.70;;;1.27;;
74241;SDS011;62599;49.146;10.426;2023-03-19T05:34:01;2.58;;;1.13;;
74241;SDS011;62599;49.146;10.426;2023-03-19T05:36:26;2.50;;;0.70;;
74241;SDS011;62599;49.146;10.426;2023-03-19T05:38:53;1.58;;;0.73;;
74241;SDS011;62599;49.146;10.426;2023-03-19T05:41:18;5.77;;;1.33;;
74241;SDS011;62599;49.146;10.426;2023-03-19T05:43:43;1.77;;;0.97;;
74241;SDS011;62599;49.146;10.426;2023-03-19T05:46:09;4.47;;;1.30;;
74241;SDS011;62599;49.146;10.426;2023-03-19T05:48:34;1.20;;;0.60;;
74241;SDS011;62599;49.146;10.426;2023-03-19T05:50:59;1.50;;;1.37;;
74241;SDS011;62599;49.146;10.426;2023-03-19T05:53:25;1.58;;;1.00;;
74241;SDS011;62599;49.146;10.426;2023-03-19T05:55:51;3.20;;;1.10;;
74241;SDS011;62599;49.146;10.426;2023-03-19T05:58:16;1.65;;;0.90;;
74241;SDS011;62599;49.146;10.426;2023-03-19T06:00:42;2.90;;;1.07;;
74241;SDS011;62599;49.146;10.426;2023-03-19T06:03:07;1.65;;;1.27;;
74241;SDS011;62599;49.146;10.426;2023-03-19T06:05:33;2.67;;;1.43;;
74241;SDS011;62599;49.146;10.426;2023-03-19T06:07:59;1.90;;;1.27;;
74241;SDS011;62599;49.146;10.426;2023-03-19T06:10:24;2.60;;;1.27;;
74241;SDS011;62599;49.146;10.426;2023-03-19T06:12:51;3.28;;;1.20;;
74241;SDS011;62599;49.146;10.426;2023-03-19T06:15:16;2.08;;;1.10;;
74241;SDS011;62599;49.146;10.426;2023-03-19T06:17:41;1.80;;;0.77;;
74241;SDS011;62599;49.146;10.426;2023-03-19T06:20:09;2.35;;;0.90;;
74241;SDS011;62599;49.146;10.426;2023-03-19T06:22:35;0.30;;;0.30;;
74241;SDS011;62599;49.146;10.426;2023-03-19T06:25:01;1.17;;;1.00;;
74241;SDS011;62599;49.146;10.426;2023-03-19T06:27:26;1.97;;;1.30;;
74241;SDS011;62599;49.146;10.426;2023-03-19T06:29:52;1.40;;;1.00;;
74241;SDS011;62599;49.146;10.426;2023-03-19T06:32:17;1.95;;;0.80;;
74241;SDS011;62599;49.146;10.426;2023-03-19T06:34:45;0.40;;;0.40;;
74241;SDS011;62599;49.146;10.426;2023-03-19T06:37:11;1.15;;;0.57;;
74241;SDS011;62599;49.146;10.426;2023-03-19T06:39:36;1.08;;;0.98;;
74241;SDS011;62599;49.146;10.426;2023-03-19T06:42:02;1.13;;;0.73;;
74241;SDS011;62599;49.146;10.426;2023-03-19T06:44:27;0.70;;;0.50;;
74241;SDS011;62599;49.146;10.426;2023-03-19T06:46:53;1.10;;;0.70;;
74241;SDS011;62599;49.146;10.426;2023-03-19T06:49:18;0.30;;;0.30;;
74241;SDS011;62599;49.146;10.426;2023-03-19T06:51:43;4.63;;;0.87;;
74241;SDS011;62599;49.146;10.426;2023-03-19T06:54:09;0.95;;;0.63;;
74241;SDS011;62599;49.146;10.426;2023-03-19T06:56:35;0.65;;;0.35;;
74241;SDS011;62599;49.146;10.426;2023-03-19T06:59:00;1.42;;;0.68;;
74241;SDS011;62599;49.146;10.426;2023-03-19T07:01:26;1.10;;;0.70;;
74241;SDS011;62599;49.146;10.426;2023-03-19T07:03:51;0.80;;;0.68;;
74241;SDS011;62599;49.146;10.426;2023-03-19T07:06:17;1.02;;;0.52;;
74241;SDS011;62599;49.146;10.426;2023-03-19T07:08:42;1.23;;;0.63;;
74241;SDS011;62599;49.146;10.426;2023-03-19T07:11:13;0.82;;;0.47;;
74241;SDS011;62599;49.146;10.426;2023-03-19T07:13:40;1.38;;;0.40;;
74241;SDS011;62599;49.146;10.426;2023-03-19T07:16:06;0.90;;;0.45;;
74241;SDS011;62599;49.146;10.426;2023-03-19T07:18:32;2.50;;;0.60;;
74241;SDS011;62599;49.146;10.426;2023-03-19T07:20:58;0.65;;;0.35;;
74241;SDS011;62599;49.146;10.426;2023-03-19T07:23:23;0.60;;;0.57;;
74241;SDS011;62599;49.146;10.426;2023-03-19T07:25:48;5.67;;;0.70;;
74241;SDS011;62599;49.146;10.426;2023-03-19T07:28:14;1.10;;;0.57;;
74241;SDS011;62599;49.146;10.426;2023-03-19T07:30:39;2.15;;;0.60;;
74241;SDS011;62599;49.146;10.426;2023-03-19T07:33:05;0.80;;;0.50;;
74241;SDS011;62599;49.146;10.426;2023-03-19T07:35:31;1.77;;;0.95;;
74241;SDS011;62599;49.146;10.426;2023-03-19T07:37:57;0.80;;;0.35;;
74241;SDS011;62599;49.146;10.426;2023-03-19T07:40:23;0.93;;;0.60;;
74241;SDS011;62599;49.146;10.426;2023-03-19T07:42:49;2.38;;;0.68;;
74241;SDS011;62599;49.146;10.426;2023-03-19T07:45:15;1.23;;;0.43;;
74241;SDS011;62599;49.146;10.426;2023-03-19T07:47:41;2.05;;;0.85;;
74241;SDS011;62599;49.146;10.426;2023-03-19T07:50:07;2.90;;;0.82;;
74241;SDS011;62599;49.146;10.426;2023-03-19T07:52:33;0.77;;;0.63;;
74241;SDS011;62599;49.146;10.426;2023-03-19T07:54:58;1.17;;;0.63;;
74241;SDS011;62599;49.146;10.426;2023-03-19T07:57:24;1.50;;;0.60;;
74241;SDS011;62599;49.146;10.426;2023-03-19T07:59:50;1.98;;;0.80;;
74241;SDS011;62599;49.146;10.426;2023-03-19T08:02:16;1.15;;;0.75;;
74241;SDS011;62599;49.146;10.426;2023-03-19T08:04:42;1.08;;;0.65;;
74241;SDS011;62599;49.146;10.426;2023-03-19T08:07:07;3.83;;;0.95;;
74241;SDS011;62599;49.146;10.426;2023-03-19T08:09:36;0.80;;;0.60;;
74241;SDS011;62599;49.146;10.426;2023-03-19T08:12:05;1.35;;;0.82;;
74241;SDS011;62599;49.146;10.426;2023-03-19T08:14:31;0.52;;;0.40;;
74241;SDS011;62599;49.146;10.426;2023-03-19T08:16:57;2.53;;;0.43;;
74241;SDS011;62599;49.146;10.426;2023-03-19T08:19:25;1.27;;;0.52;;
74241;SDS011;62599;49.146;10.426;2023-03-19T08:21:51;0.80;;;0.70;;
74241;SDS011;62599;49.146;10.426;2023-03-19T08:24:16;0.80;;;0.60;;
74241;SDS011;62599;49.146;10.426;2023-03-19T08:26:44;1.33;;;0.98;;
74241;SDS011;62599;49.146;10.426;2023-03-19T08:29:11;1.17;;;0.57;;
74241;SDS011;62599;49.146;10.426;2023-03-19T08:31:36;2.42;;;0.77;;
74241;SDS011;62599;49.146;10.426;2023-03-19T08:34:02;1.38;;;0.55;;
74241;SDS011;62599;49.146;10.426;2023-03-19T08:36:28;2.15;;;0.75;;
74241;SDS011;62599;49.146;10.426;2023-03-19T08:38:54;0.82;;;0.70;;
74241;SDS011;62599;49.146;10.426;2023-03-19T08:41:20;1.08;;;0.73;;
74241;SDS011;62599;49.146;10.426;2023-03-19T08:43:46;2.30;;;0.57;;
74241;SDS011;62599;49.146;10.426;2023-03-19T08:46:12;1.48;;;0.88;;
74241;SDS011;62599;49.146;10.426;2023-03-19T08:48:37;2.58;;;0.73;;
74241;SDS011;62599;49.146;10.426;2023-03-19T08:51:03;2.42;;;1.15;;
74241;SDS011;62599;49.146;10.426;2023-03-19T08:53:29;9.05;;;3.60;;
74241;SDS011;62599;49.146;10.426;2023-03-19T08:55:57;6.85;;;2.45;;
74241;SDS011;62599;49.146;10.426;2023-03-19T08:58:24;2.92;;;1.60;;
74241;SDS011;62599;49.146;10.426;2023-03-19T09:00:50;2.03;;;0.93;;
74241;SDS011;62599;49.146;10.426;2023-03-19T09:03:17;1.27;;;0.73;;
74241;SDS011;62599;49.146;10.426;2023-03-19T09:05:44;2.00;;;0.70;;
74241;SDS011;62599;49.146;10.426;2023-03-19T09:08:10;0.90;;;0.45;;
74241;SDS011;62599;49.146;10.426;2023-03-19T09:10:38;1.70;;;0.77;;
74241;SDS011;62599;49.146;10.426;2023-03-19T09:13:03;4.03;;;0.82;;
74241;SDS011;62599;49.146;10.426;2023-03-19T09:15:29;1.05;;;0.68;;
74241;SDS011;62599;49.146;10.426;2023-03-19T09:17:55;1.40;;;0.82;;
74241;SDS011;62599;49.146;10.426;2023-03-19T09:20:21;2.28;;;0.85;;
74241;SDS011;62599;49.146;10.426;2023-03-19T09:22:48;0.65;;;0.50;;
74241;SDS011;62599;49.146;10.426;2023-03-19T09:25:14;1.27;;;0.88;;
74241;SDS011;62599;49.146;10.426;2023-03-19T09:27:40;0.90;;;0.52;;
74241;SDS011;62599;49.146;10.426;2023-03-19T09:30:05;1.23;;;0.93;;
74241;SDS011;62599;49.146;10.426;2023-03-19T09:32:34;2.22;;;0.93;;
74241;SDS011;62599;49.146;10.426;2023-03-19T09:35:00;2.10;;;1.08;;
74241;SDS011;62599;49.146;10.426;2023-03-19T09:37:25;2.97;;;1.37;;
74241;SDS011;62599;49.146;10.426;2023-03-19T09:39:50;1.77;;;1.00;;
74241;SDS011;62599;49.146;10.426;2023-03-19T09:45:00;1.73;;;1.00;;
74241;SDS011;62599;49.146;10.426;2023-03-19T09:47:30;1.23;;;0.77;;
74241;SDS011;62599;49.146;10.426;2023-03-19T09:50:03;2.10;;;0.85;;
74241;SDS011;62599;49.146;10.426;2023-03-19T09:52:40;1.48;;;0.73;;
74241;SDS011;62599;49.146;10.426;2023-03-19T09:55:14;1.83;;;1.35;;
74241;SDS011;62599;49.146;10.426;2023-03-19T09:57:40;1.70;;;0.90;;
74241;SDS011;62599;49.146;10.426;2023-03-19T10:02:47;2.17;;;0.82;;
74241;SDS011;62599;49.146;10.426;2023-03-19T10:05:36;2.05;;;1.02;;
74241;SDS011;62599;49.146;10.426;2023-03-19T10:16:49;1.42;;;0.63;;
74241;SDS011;62599;49.146;10.426;2023-03-19T10:19:23;2.80;;;1.23;;
74241;SDS011;62599;49.146;10.426;2023-03-19T10:22:02;2.28;;;0.52;;
74241;SDS011;62599;49.146;10.426;2023-03-19T10:24:38;2.00;;;0.95;;
74241;SDS011;62599;49.146;10.426;2023-03-19T10:27:17;0.77;;;0.68;;
74241;SDS011;62599;49.146;10.426;2023-03-19T10:29:45;1.73;;;0.68;;
74241;SDS011;62599;49.146;10.426;2023-03-19T10:34:49;1.80;;;0.55;;
74241;SDS011;62599;49.146;10.426;2023-03-19T10:37:28;2.47;;;0.50;;
74241;SDS011;62599;49.146;10.426;2023-03-19T10:39:55;1.33;;;0.88;;
74241;SDS011;62599;49.146;10.426;2023-03-19T10:42:38;1.50;;;0.57;;
74241;SDS011;62599;49.146;10.426;2023-03-19T10:45:23;0.85;;;0.80;;
74241;SDS011;62599;49.146;10.426;2023-03-19T10:47:52;0.98;;;0.88;;
74241;SDS011;62599;49.146;10.426;2023-03-19T10:50:21;1.00;;;0.88;;
74241;SDS011;62599;49.146;10.426;2023-03-19T10:52:59;1.45;;;0.80;;
74241;SDS011;62599;49.146;10.426;2023-03-19T10:55:29;1.10;;;0.47;;
74241;SDS011;62599;49.146;10.426;2023-03-19T10:58:16;1.20;;;0.55;;
74241;SDS011;62599;49.146;10.426;2023-03-19T11:00:47;1.80;;;0.75;;
74241;SDS011;62599;49.146;10.426;2023-03-19T11:03:35;0.77;;;0.55;;
74241;SDS011;62599;49.146;10.426;2023-03-19T11:06:24;1.50;;;0.60;;
74241;SDS011;62599;49.146;10.426;2023-03-19T11:09:02;2.92;;;0.68;;
74241;SDS011;62599;49.146;10.426;2023-03-19T11:11:41;2.00;;;1.00;;
74241;SDS011;62599;49.146;10.426;2023-03-19T11:19:19;1.75;;;0.70;;
74241;SDS011;62599;49.146;10.426;2023-03-19T11:24:32;3.35;;;0.65;;
74241;SDS011;62599;49.146;10.426;2023-03-19T11:27:00;2.85;;;1.13;;
74241;SDS011;62599;49.146;10.426;2023-03-19T11:29:27;1.00;;;0.75;;
74241;SDS011;62599;49.146;10.426;2023-03-19T11:32:06;1.20;;;0.60;;
74241;SDS011;62599;49.146;10.426;2023-03-19T11:34:57;1.63;;;0.77;;
74241;SDS011;62599;49.146;10.426;2023-03-19T11:57:37;1.45;;;0.90;;
74241;SDS011;62599;49.146;10.426;2023-03-19T12:05:48;2.42;;;0.98;;
74241;SDS011;62599;49.146;10.426;2023-03-19T12:11:30;6.10;;;1.23;;
74241;SDS011;62599;49.146;10.426;2023-03-19T12:27:59;2.95;;;0.77;;
74241;SDS011;62599;49.146;10.426;2023-03-19T12:30:52;2.35;;;0.68;;
74241;SDS011;62599;49.146;10.426;2023-03-19T12:33:28;1.15;;;0.80;;
74241;SDS011;62599;49.146;10.426;2023-03-19T12:35:56;1.00;;;0.77;;
74241;SDS011;62599;49.146;10.426;2023-03-19T12:38:42;2.47;;;1.48;;
74241;SDS011;62599;49.146;10.426;2023-03-19T12:46:35;3.53;;;0.77;;
74241;SDS011;62599;49.146;10.426;2023-03-19T12:49:15;1.90;;;1.02;;
74241;SDS011;62599;49.146;10.426;2023-03-19T12:51:47;1.83;;;0.70;;
74241;SDS011;62599;49.146;10.426;2023-03-19T12:54:32;1.45;;;0.95;;
74241;SDS011;62599;49.146;10.426;2023-03-19T13:10:26;2.63;;;0.77;;
74241;SDS011;62599;49.146;10.426;2023-03-19T13:12:54;4.35;;;0.75;;
74241;SDS011;62599;49.146;10.426;2023-03-19T13:23:46;0.82;;;0.63;;
74241;SDS011;62599;49.146;10.426;2023-03-19T13:26:15;2.50;;;0.95;;
74241;SDS011;62599;49.146;10.426;2023-03-19T13:29:01;3.58;;;0.98;;
74241;SDS011;62599;49.146;10.426;2023-03-19T13:31:33;0.98;;;0.68;;
74241;SDS011;62599;49.146;10.426;2023-03-19T13:34:16;1.40;;;0.55;;
74241;SDS011;62599;49.146;10.426;2023-03-19T13:37:07;0.85;;;0.50;;
74241;SDS011;62599;49.146;10.426;2023-03-19T13:39:40;0.82;;;0.50;;
74241;SDS011;62599;49.146;10.426;2023-03-19T13:42:09;2.67;;;0.73;;
74241;SDS011;62599;49.146;10.426;2023-03-19T14:01:02;1.65;;;0.77;;
74241;SDS011;62599;49.146;10.426;2023-03-19T14:03:32;1.48;;;0.75;;
74241;SDS011;62599;49.146;10.426;2023-03-19T14:06:05;2.08;;;0.93;;
74241;SDS011;62599;49.146;10.426;2023-03-19T14:08:57;1.83;;;0.70;;
74241;SDS011;62599;49.146;10.426;2023-03-19T14:11:23;2.55;;;0.95;;
74241;SDS011;62599;49.146;10.426;2023-03-19T14:13:53;0.98;;;0.63;;
74241;SDS011;62599;49.146;10.426;2023-03-19T14:16:30;0.82;;;0.50;;
74241;SDS011;62599;49.146;10.426;2023-03-19T14:19:00;0.82;;;0.57;;
74241;SDS011;62599;49.146;10.426;2023-03-19T14:21:31;1.17;;;0.70;;
74241;SDS011;62599;49.146;10.426;2023-03-19T14:24:18;2.22;;;0.77;;
74241;SDS011;62599;49.146;10.426;2023-03-19T14:27:00;0.82;;;0.47;;
74241;SDS011;62599;49.146;10.426;2023-03-19T14:29:28;0.85;;;0.60;;
74241;SDS011;62599;49.146;10.426;2023-03-19T14:31:58;1.17;;;0.77;;
74241;SDS011;62599;49.146;10.426;2023-03-19T14:34:39;0.77;;;0.75;;
74241;SDS011;62599;49.146;10.426;2023-03-19T14:37:12;0.73;;;0.50;;
74241;SDS011;62599;49.146;10.426;2023-03-19T14:39:44;2.15;;;0.60;;
74241;SDS011;62599;49.146;10.426;2023-03-19T14:42:25;1.17;;;0.80;;
74241;SDS011;62599;49.146;10.426;2023-03-19T14:53:03;0.73;;;0.50;;
74241;SDS011;62599;49.146;10.426;2023-03-19T14:55:39;7.13;;;0.70;;
74241;SDS011;62599;49.146;10.426;2023-03-19T14:58:05;1.15;;;0.57;;
74241;SDS011;62599;49.146;10.426;2023-03-19T15:03:13;2.78;;;0.63;;
74241;SDS011;62599;49.146;10.426;2023-03-19T15:05:45;1.85;;;0.60;;
74241;SDS011;62599;49.146;10.426;2023-03-19T15:08:14;1.23;;;0.70;;
74241;SDS011;62599;49.146;10.426;2023-03-19T15:13:34;2.55;;;0.70;;
74241;SDS011;62599;49.146;10.426;2023-03-19T15:19:10;3.53;;;0.85;;
74241;SDS011;62599;49.146;10.426;2023-03-19T15:21:36;1.02;;;0.75;;
74241;SDS011;62599;49.146;10.426;2023-03-19T15:24:02;1.20;;;0.73;;
74241;SDS011;62599;49.146;10.426;2023-03-19T15:26:32;0.57;;;0.50;;
74241;SDS011;62599;49.146;10.426;2023-03-19T15:29:00;0.90;;;0.65;;
74241;SDS011;62599;49.146;10.426;2023-03-19T15:34:16;1.05;;;0.73;;
74241;SDS011;62599;49.146;10.426;2023-03-19T15:36:51;1.80;;;0.70;;
74241;SDS011;62599;49.146;10.426;2023-03-19T15:39:28;1.52;;;0.73;;
74241;SDS011;62599;49.146;10.426;2023-03-19T15:46:57;4.32;;;0.60;;
74241;SDS011;62599;49.146;10.426;2023-03-19T15:49:27;1.10;;;0.75;;
74241;SDS011;62599;49.146;10.426;2023-03-19T15:51:57;0.70;;;0.70;;
74241;SDS011;62599;49.146;10.426;2023-03-19T15:54:26;0.98;;;0.60;;
74241;SDS011;62599;49.146;10.426;2023-03-19T15:56:52;1.00;;;0.90;;
74241;SDS011;62599;49.146;10.426;2023-03-19T15:59:19;1.52;;;0.82;;
74241;SDS011;62599;49.146;10.426;2023-03-19T16:01:48;0.93;;;0.57;;
74241;SDS011;62599;49.146;10.426;2023-03-19T16:04:15;2.42;;;0.57;;
74241;SDS011;62599;49.146;10.426;2023-03-19T16:06:46;1.15;;;0.70;;
74241;SDS011;62599;49.146;10.426;2023-03-19T16:09:21;1.88;;;0.82;;
74241;SDS011;62599;49.146;10.426;2023-03-19T16:11:56;8.43;;;1.00;;
74241;SDS011;62599;49.146;10.426;2023-03-19T16:14:26;2.88;;;1.35;;
74241;SDS011;62599;49.146;10.426;2023-03-19T16:17:08;6.90;;;2.42;;
74241;SDS011;62599;49.146;10.426;2023-03-19T16:19:37;3.78;;;1.73;;
74241;SDS011;62599;49.146;10.426;2023-03-19T16:22:13;1.67;;;0.82;;
74241;SDS011;62599;49.146;10.426;2023-03-19T16:24:43;1.90;;;1.10;;
74241;SDS011;62599;49.146;10.426;2023-03-19T16:27:15;2.20;;;1.00;;
74241;SDS011;62599;49.146;10.426;2023-03-19T16:29:46;1.45;;;0.88;;
74241;SDS011;62599;49.146;10.426;2023-03-19T16:32:20;1.38;;;0.95;;
74241;SDS011;62599;49.146;10.426;2023-03-19T16:34:51;1.27;;;0.98;;
74241;SDS011;62599;49.146;10.426;2023-03-19T16:39:57;1.25;;;0.40;;
74241;SDS011;62599;49.146;10.426;2023-03-19T16:45:31;0.50;;;0.50;;
74241;SDS011;62599;49.146;10.426;2023-03-19T16:47:55;0.73;;;0.47;;
74241;SDS011;62599;49.146;10.426;2023-03-19T16:50:38;4.25;;;0.60;;
74241;SDS011;62599;49.146;10.426;2023-03-19T16:53:38;0.60;;;0.50;;
74241;SDS011;62599;49.146;10.426;2023-03-19T16:55:57;1.65;;;0.50;;
74241;SDS011;62599;49.146;10.426;2023-03-19T16:58:25;2.25;;;1.13;;
74241;SDS011;62599;49.146;10.426;2023-03-19T17:00:51;1.45;;;1.23;;
74241;SDS011;62599;49.146;10.426;2023-03-19T17:03:17;2.45;;;1.20;;
74241;SDS011;62599;49.146;10.426;2023-03-19T17:05:43;1.25;;;0.63;;
74241;SDS011;62599;49.146;10.426;2023-03-19T17:08:10;0.93;;;0.60;;
74241;SDS011;62599;49.146;10.426;2023-03-19T17:10:39;1.08;;;0.60;;